Tiempo atmosférico en la estación meteorológica de Ballobar, Huesca (178 m.)



Fecha
DESCASC
Temp. máxima en grados centígrados (hora)
DESCASC
Temp. mínima en grados centígrados (hora)
DESCASC
Temp. media en grados centígrados
DESCASC
Racha de viento máxima en m/sg (hora)
DESCASC
Velocidad máxima media en intervalos de 10 minutos(hora)
DESCASC
Precipitaciones diarias en mm
DESCASC
Precipitaciones de 00:00 a 06:00 en mm
DESCASC
Precipitaciones de 06:00 a 12:00 en mm
DESCASC
Precipitaciones de 12:00 a 18:00 en mm
DESCASC
Precipitaciones de 18:00 a 24:00 en mm
DESCASC
19-04-2018 23.9 (17:10) 9.4 (07:20) 16.6 8.61 (17:40) 4.72 (18:30) 0 0 0 0 0
18-04-2018 26.3 (17:00) 9 (07:10) 17.6 7.22 (16:30) 4.72 (23:00) 0 0 0 0 0
17-04-2018 23.4 (18:30) 7.4 (07:20) 15.4 5.28 (03:00) 3.61 (02:40) 0 0 0 0 0
16-04-2018 18 (19:40) 11.6 (23:59) 14.8 8.89 (13:40) 6.39 (13:40) 13 0 13 0 0
15-04-2018 21.7 (17:20) 5.9 (00:00) 13.8 9.72 (16:40) 6.39 (18:10) 0 0 0 0 0
14-04-2018 16.6 (13:50) 5.8 (00:00) 11.2 7.78 (18:50) 5.28 (18:50) 0 0 0 0 0
13-04-2018 15.9 (17:30) 9.1 (00:00) 12.5 9.17 (18:10) 6.11 (06:50) 11.4 0 4.8 0 6.6
12-04-2018 16.2 (14:20) 2.5 (00:00) 9.4 9.44 (02:00) 6.11 (16:10) 2.2 0 0 2.2 0
11-04-2018 10.5 (15:40) 5.1 (00:00) 7.8 12.78 (04:00) 7.5 (04:00) 23.4 18.2 0.2 4.4 0.6
10-04-2018 13.7 (15:00) 4 (00:00) 8.8 11.94 (15:50) 8.33 (15:50) 4.2 0 0 1.2 3
09-04-2018 14.3 (13:40) 3.8 (00:00) 9.1 9.72 (15:00) 6.11 (15:00) 4.6 0 0 3.6 1
08-04-2018 15.1 (18:30) 8.3 (00:00) 11.7 14.17 (02:40) 7.22 (15:40) 19.6 19.4 0.2 0 0
07-04-2018 19.4 (14:40) 11.7 (00:00) 15.5 9.72 (11:30) 5.83 (00:20) 0.4 0 0 0 0.4
06-04-2018 21 (15:40) 5.2 (00:00) 13.1 14.17 (18:30) 8.89 (16:40) 0 0 0 0 0
05-04-2018 20.6 (17:10) 5.9 (00:00) 13.3 7.78 (18:00) 4.72 (18:00) 0 0 0 0 0
04-04-2018 20.2 (17:20) 9.2 (00:00) 14.7 14.17 (19:40) 9.72 (18:30) 0.2 0.2 0 0 0
03-04-2018 21.9 (16:10) 6.9 (00:00) 14.4 8.06 (15:30) 4.44 (14:50) 0 0 0 0 0
02-04-2018 18.2 (16:50) 7.1 (00:00) 12.7 11.94 (22:20) 7.5 (22:20) 0 0 0 0 0
01-04-2018 18.8 (16:30) 2.1 (00:00) 10.4 11.39 (00:30) 8.06 (00:30) 0 0 0 0 0
31-03-2018 14.8 (16:10) 4.7 (00:00) 9.8 20.28 (11:50) 13.06 (13:10) 0 0 0 0 0
30-03-2018 16 (17:30) 8.3 (00:00) 12.2 12.78 (15:50) 9.17 (12:00) 0 0 0 0 0
29-03-2018 19.4 (16:20) 8.7 (00:00) 14 10.56 (15:40) 6.67 (03:50) 0 0 0 0 0
28-03-2018 24.4 (17:20) 6.9 (00:00) 15.6 14.44 (00:10) 9.72 (00:10) 0 0 0 0 0
27-03-2018 19.9 (16:30) 5.6 (00:00) 12.7 20 (17:40) 13.61 (17:10) 0 0 0 0 0
26-03-2018 16.5 (15:20) 3.5 (00:00) 10 18.89 (20:00) 11.39 (14:00) 0 0 0 0 0
25-03-2018 14.8 (16:50) 2.8 (00:00) 8.8 10.56 (23:30) 6.67 (23:30) 0 0 0 0 0
24-03-2018 12.6 (17:30) 7.2 (00:00) 9.9 15.56 (08:00) 10 (08:00) 9.2 9 0.2 0 0
23-03-2018 19.1 (15:20) 0.1 (00:00) 9.6 15.56 (16:00) 9.72 (14:20) 0 0 0 0 0

Gráficas

Temp. máximas Temp. mínimas Temp. medias Precipitaciones Rachas de viento máximas Velocidades máximas media en intervalos de 10 minutos

Datos horarios

Fecha y hora oficial Temperatura (ºC) Velocidad del viento (km/h) Dirección del viento Racha (km/h) Dirección de racha Precipitación (mm) Presión (hPa) Tendencia (hPa) Humedad (%)
2018-04-21 23:00:00 17.3 6 Sur 15 Sudeste 0 -- -- 58
2018-04-21 22:00:00 18.3 6 Sudoeste 20 Sudoeste 0 -- -- 57
2018-04-21 21:00:00 19.5 9 Sur 23 Sur 0 -- -- 53
2018-04-21 20:00:00 21.5 10 Sur 23 Sudeste 0 -- -- 50
2018-04-21 19:00:00 23.2 12 Sudeste 19 Este 0 -- -- 42
2018-04-21 18:00:00 24.3 14 Este 28 Este 0 -- -- 39
2018-04-21 17:00:00 24.5 11 Este 25 Este 0 -- -- 36
2018-04-21 16:00:00 24.8 17 Este 28 Este 0 -- -- 40
2018-04-21 15:00:00 23.5 6 Nordeste 22 Este 0 -- -- 43
2018-04-21 14:00:00 22.7 10 Este 16 Este 0 -- -- 47
2018-04-21 13:00:00 20.7 8 Nordeste 14 Este 0 -- -- 56
2018-04-21 12:00:00 19 8 Este 15 Este 0 -- -- 64
2018-04-21 11:00:00 16.3 6 Nordeste 13 Nordeste 0 -- -- 73
2018-04-21 10:00:00 13.9 7 Nordeste 12 Nordeste 0 -- -- 80
2018-04-21 09:00:00 11.5 6 Nordeste 10 Nordeste 0 -- -- 88
2018-04-21 08:00:00 8.8 2 Noroeste 5 Nordeste 0 -- -- 94
2018-04-21 07:00:00 8.6 3 Oeste 6 Oeste 0 -- -- 94
2018-04-21 06:00:00 8.9 3 Oeste 5 Noroeste 0 -- -- 92
2018-04-21 05:00:00 9.6 4 Oeste 7 Oeste 0 -- -- 92
2018-04-21 04:00:00 10.1 4 Oeste 5 Oeste 0 -- -- 90
2018-04-21 03:00:00 10.9 5 Noroeste 8 Oeste 0 -- -- 89
2018-04-21 02:00:00 12 2 Noroeste 8 Oeste 0 -- -- 84
2018-04-21 01:00:00 13.3 2 Nordeste 10 Norte 0 -- -- 78
2018-04-21 00:00:00 14.3 5 Este 11 Nordeste 0 -- -- 74
2018-04-20 23:00:00 16 6 Noroeste 15 Sudeste 0 -- -- 65
2018-04-20 22:00:00 17.8 9 Sur 19 Sur 0 -- -- 58
2018-04-20 21:00:00 18.8 10 Sudeste 24 Sur 0 -- -- 56
2018-04-20 20:00:00 20.9 13 Sur 30 Sur 0 -- -- 50
2018-04-20 19:00:00 22.3 12 Sudeste 29 Sudeste 0 -- -- 46
2018-04-20 18:00:00 23.4 15 Sur 33 Sudeste 0 -- -- 44
2018-04-20 17:00:00 23.6 18 Este 33 Este 0 -- -- 39
2018-04-20 16:00:00 23.8 12 Este 33 Este 0 -- -- 42
2018-04-20 15:00:00 22.8 14 Este 24 Sudeste 0 -- -- 47
2018-04-20 14:00:00 22.1 13 Este 25 Este 0 -- -- 49
2018-04-20 13:00:00 21.3 11 Sudeste 22 Sudeste 0 -- -- 53
2018-04-20 12:00:00 19.3 5 Nordeste 12 Este 0 -- -- 63
2018-04-20 11:00:00 17.4 4 Nordeste 12 Nordeste 0 -- -- 68
2018-04-20 10:00:00 15 6 Nordeste 9 Este 0 -- -- 75
2018-04-20 09:00:00 11.7 3 Este 8 Nordeste 0 -- -- 89
2018-04-20 08:00:00 9.1 4 Oeste 5 Noroeste 0 -- -- 94
2018-04-20 07:00:00 8.7 4 Este 8 Oeste 0 -- -- 92
2018-04-20 06:00:00 9.6 5 Noroeste 6 Noroeste 0 -- -- 92
2018-04-20 05:00:00 10 2 Oeste 6 Oeste 0 -- -- 91
2018-04-20 04:00:00 11 5 Noroeste 7 Noroeste 0 -- -- 88
2018-04-20 03:00:00 11.9 2 Noroeste 9 Oeste 0 -- -- 84
2018-04-20 02:00:00 12.2 2 Oeste 5 Oeste 0 -- -- 84
2018-04-20 01:00:00 13 2 Noroeste 5 Noroeste 0 -- -- 79
2018-04-20 00:00:00 14.6 4 Oeste 15 Sudeste 0 -- -- 72
2018-04-19 23:00:00 16.4 7 Sudeste 17 Sudeste 0 -- -- 61
2018-04-19 22:00:00 17.6 12 Sudeste 20 Sur 0 -- -- 58
2018-04-19 21:00:00 19 8 Sur 24 Sur 0 -- -- 56
2018-04-19 20:00:00 21.1 9 Sudeste 27 Sur 0 -- -- 49
2018-04-19 19:00:00 22.5 13 Sur 26 Sur 0 -- -- 46
2018-04-19 18:00:00 23.1 17 Sur 31 Sur 0 -- -- 45
2018-04-19 17:00:00 23.7 13 Sudeste 24 Este 0 -- -- 45
2018-04-19 16:00:00 23.6 14 Este 23 Sudeste 0 -- -- 46
2018-04-19 15:00:00 23.1 8 Este 22 Este 0 -- -- 50
2018-04-19 14:00:00 22.5 10 Este 24 Nordeste 0 -- -- 51
2018-04-19 13:00:00 21.2 15 Este 22 Nordeste 0 -- -- 50
2018-04-19 12:00:00 19.9 5 Nordeste 12 Este 0 -- -- 55
2018-04-19 11:00:00 17.9 5 Nordeste 10 Nordeste 0 -- -- 61
2018-04-19 10:00:00 15.4 4 Este 7 Este 0 -- -- 75
2018-04-19 09:00:00 12.2 0 Calma 8 Este 0 -- -- 86
2018-04-19 08:00:00 9.8 2 Noroeste 9 Oeste 0 -- -- 92
2018-04-19 07:00:00 9.7 4 Oeste 6 Oeste 0 -- -- 91
2018-04-19 06:00:00 10.7 4 Noroeste 8 Sudoeste 0 -- -- 87
2018-04-19 05:00:00 11.4 5 Oeste 8 Noroeste 0 -- -- 86
2018-04-19 04:00:00 11.7 0 Calma 6 Oeste 0 -- -- 84
2018-04-19 03:00:00 12.6 2 Nordeste 6 Noroeste 0 -- -- 80
2018-04-19 02:00:00 13.7 0 Calma 5 Noroeste 0 -- -- 76
2018-04-19 01:00:00 15.1 3 Noroeste 8 Oeste 0 -- -- 70
2018-04-19 00:00:00 16.9 8 Este 24 Este 0 -- -- 60
2018-04-18 23:00:00 18 17 Este 24 Este 0 -- -- 55
2018-04-18 22:00:00 19.7 6 Sudeste 23 Sur 0 -- -- 49
2018-04-18 21:00:00 21.1 9 Sur 19 Sudeste 0 -- -- 47
2018-04-18 20:00:00 24 9 Sudeste 18 Sur 0 -- -- 43
2018-04-18 19:00:00 25.5 10 Sur 22 Sudeste 0 -- -- 37
2018-04-18 18:00:00 25.8 10 Sudeste 25 Este 0 -- -- 35
2018-04-18 17:00:00 26.3 9 Este 26 Este 0 -- -- 44
2018-04-18 16:00:00 25.8 11 Este 25 Sudeste 0 -- -- 42
2018-04-18 15:00:00 24.9 12 Este 21 Sudeste 0 -- -- 44
2018-04-18 14:00:00 24.1 10 Sudeste 17 Sudeste 0 -- -- 50
2018-04-18 13:00:00 21.6 7 Este 14 Este 0 -- -- 61
2018-04-18 12:00:00 19.7 8 Este 14 Este 0 -- -- 67
2018-04-18 11:00:00 17.5 6 Este 11 Nordeste 0 -- -- 71
2018-04-18 10:00:00 14.8 6 Este 10 Este 0 -- -- 83
2018-04-18 09:00:00 12.4 4 Nordeste 7 Este 0 -- -- 89
2018-04-18 08:00:00 10 0 Calma 5 Noroeste 0 -- -- 96
2018-04-18 07:00:00 9.1 0 Calma 5 Noroeste 0 -- -- 95
2018-04-18 06:00:00 9.3 0 Calma 4 Oeste 0 -- -- 95
2018-04-18 05:00:00 9.8 3 Noroeste 5 Oeste 0 -- -- 95
2018-04-18 04:00:00 10.2 0 Calma 3 Oeste 0 -- -- 94
2018-04-18 03:00:00 10.8 0 Calma 3 Nordeste 0 -- -- 92
2018-04-18 02:00:00 11.7 0 Calma 5 Oeste 0 -- -- 91
2018-04-18 01:00:00 12.5 0 Calma 6 Oeste 0 -- -- 89
2018-04-18 00:00:00 13.6 4 Oeste 8 Noroeste 0 -- -- 84
2018-04-17 23:00:00 15 5 Noroeste 9 Oeste 0 -- -- 79
2018-04-17 22:00:00 15.9 4 Oeste 8 Oeste 0 -- -- 77
2018-04-17 21:00:00 17.9 0 Calma 4 Este 0 -- -- 69
2018-04-17 20:00:00 22 3 Nordeste 8 Oeste 0 -- -- 52
2018-04-17 19:00:00 23.3 4 Sur 12 Noroeste 0 -- -- 48
2018-04-17 18:00:00 23.1 8 Oeste 13 Sudoeste 0 -- -- 44
2018-04-17 17:00:00 22.7 6 Este 14 Oeste 0 -- -- 49
2018-04-17 16:00:00 22.2 7 Sudeste 16 Este 0 -- -- 53
2018-04-17 15:00:00 21.1 8 Este 14 Este 0 -- -- 57
2018-04-17 14:00:00 19.6 5 Norte 17 Este 0 -- -- 66
2018-04-17 13:00:00 18.2 9 Nordeste 15 Este 0 -- -- 66
2018-04-17 12:00:00 16.8 8 Este 13 Nordeste 0 -- -- 69
2018-04-17 11:00:00 14.6 5 Nordeste 12 Este 0 -- -- 76
2018-04-17 10:00:00 12.7 4 Nordeste 14 Sudoeste 0 -- -- 83
2018-04-17 09:00:00 10.1 5 Sudoeste 10 Sudoeste 0 -- -- 89
2018-04-17 08:00:00 8.1 5 Noroeste 10 Oeste 0 -- -- 93
2018-04-17 07:00:00 7.7 10 Oeste 13 Oeste 0 -- -- 93
2018-04-17 06:00:00 8.2 9 Oeste 17 Oeste 0 -- -- 93
2018-04-17 05:00:00 8.5 10 Oeste 15 Oeste 0 -- -- 92
2018-04-17 04:00:00 9.1 7 Oeste 17 Sudoeste 0 -- -- 90
2018-04-17 03:00:00 9.8 13 Oeste 19 Sudoeste 0 -- -- 91
2018-04-17 02:00:00 9.8 5 Noroeste 9 Oeste 0 -- -- 92
2018-04-17 01:00:00 10.6 4 Oeste 10 Oeste 0 -- -- 91
2018-04-17 00:00:00 11.6 3 Oeste 11 Oeste 0 -- -- 89
2018-04-16 23:00:00 12.9 3 Oeste 17 Sudoeste 0 -- -- 86
2018-04-16 22:00:00 13.6 6 Oeste 12 Oeste 0 -- -- 87
2018-04-16 21:00:00 14.6 5 Oeste 10 Sudoeste 0 -- -- 82
2018-04-16 20:00:00 17.6 8 Oeste 18 Oeste 0 -- -- 69
2018-04-16 19:00:00 17 13 Oeste 23 Oeste 0 -- -- 69
2018-04-16 18:00:00 17.3 18 Oeste 29 Noroeste 0 -- -- 70
2018-04-16 17:00:00 17.3 17 Noroeste 27 Oeste 0 -- -- 70
2018-04-16 16:00:00 16.8 15 Oeste 24 Oeste 0 -- -- 73
2018-04-16 15:00:00 15.3 15 Oeste 29 Oeste 0 -- -- 80
2018-04-16 14:00:00 14.1 18 Oeste 32 Oeste 0 -- -- 83
2018-04-16 13:00:00 13.6 21 Oeste 26 Oeste 0 -- -- 89
2018-04-16 12:00:00 12.4 16 Noroeste 24 Oeste 0 -- -- 90
2018-04-16 11:00:00 13.4 0 Calma 8 Oeste 0.2 -- -- 95
2018-04-16 10:00:00 12.7 4 Oeste 8 Norte 1.4 -- -- 95
2018-04-16 09:00:00 12.2 6 Nordeste 12 Oeste 3.2 -- -- 95
2018-04-16 08:00:00 12.1 5 Noroeste 9 Sur 7.2 -- -- 94
2018-04-16 07:00:00 12.6 6 Oeste 25 Oeste 1 -- -- 88
2018-04-16 06:00:00 12.3 3 Noroeste 12 Este 0 -- -- 88
2018-04-16 05:00:00 12.6 2 Oeste 12 Nordeste 0 -- -- 86
2018-04-16 04:00:00 12.9 7 Nordeste 11 Nordeste 0 -- -- 84
2018-04-16 03:00:00 13.3 3 Noroeste 9 Oeste 0 -- -- 83
2018-04-16 02:00:00 13.1 3 Oeste 10 Oeste 0 -- -- 82
2018-04-16 01:00:00 13.4 4 Oeste 12 Oeste 0 -- -- 80
2018-04-16 00:00:00 13.4 5 Noroeste 8 Noroeste 0 -- -- 80
2018-04-15 23:00:00 15.1 4 Oeste 15 Oeste 0 -- -- 73
2018-04-15 22:00:00 16.3 12 Oeste 16 Oeste 0 -- -- 68
2018-04-15 21:00:00 16.9 12 Oeste 16 Oeste 0 -- -- 64
2018-04-15 20:00:00 19.6 8 Oeste 22 Oeste 0 -- -- 57
2018-04-15 19:00:00 21.3 12 Noroeste 32 Oeste 0 -- -- 49
2018-04-15 18:00:00 21.5 21 Oeste 32 Oeste 0 -- -- 48
2018-04-15 17:00:00 21.4 19 Oeste 35 Noroeste 0 -- -- 49
2018-04-15 16:00:00 21.3 21 Oeste 33 Oeste 0 -- -- 45
2018-04-15 15:00:00 20.6 13 Noroeste 26 Oeste 0 -- -- 48
2018-04-15 14:00:00 20 11 Oeste 22 Oeste 0 -- -- 55
2018-04-15 13:00:00 18.6 6 Noroeste 20 Oeste 0 -- -- 61
2018-04-15 12:00:00 16.7 5 Sudoeste 14 Sur 0 -- -- 67
2018-04-15 11:00:00 14.4 7 Sur 12 Sur 0 -- -- 74
2018-04-15 10:00:00 11.4 8 Sudoeste 13 Sudoeste 0 -- -- 86
2018-04-15 09:00:00 8.7 8 Sudoeste 11 Sudoeste 0 -- -- 93
2018-04-15 08:00:00 6.5 6 Sudoeste 12 Sudoeste 0 -- -- 96
2018-04-15 07:00:00 6.3 3 Sudoeste 10 Oeste 0 -- -- 96
2018-04-15 06:00:00 6 3 Sur 11 Sudoeste 0 -- -- 95
2018-04-15 05:00:00 6.3 4 Oeste 6 Sudoeste 0 -- -- 95
2018-04-15 04:00:00 7 3 Oeste 6 Oeste 0 -- -- 95
2018-04-15 03:00:00 7.6 3 Sudoeste 9 Sudoeste 0 -- -- 94
2018-04-15 02:00:00 7.7 5 Oeste 8 Noroeste 0 -- -- 95
2018-04-15 01:00:00 8 3 Noroeste 8 Oeste 0 -- -- 92
2018-04-15 00:00:00 9.1 6 Noroeste 7 Noroeste 0 -- -- 91
2018-04-14 23:00:00 9.7 4 Noroeste 8 Oeste 0 -- -- 89
2018-04-14 22:00:00 10.5 4 Noroeste 5 Noroeste 0 -- -- 87
2018-04-14 21:00:00 12.3 3 Noroeste 11 Nordeste 0 -- -- 80
2018-04-14 20:00:00 14.6 6 Este 24 Este 0 -- -- 69
2018-04-14 19:00:00 15.2 18 Este 28 Este 0 -- -- 71
2018-04-14 18:00:00 16.1 9 Nordeste 14 Este 0 -- -- 64
2018-04-14 17:00:00 16.4 8 Este 22 Este 0 -- -- 62
2018-04-14 16:00:00 16.4 13 Este 20 Este 0 -- -- 67
2018-04-14 15:00:00 16.3 15 Este 24 Sudeste 0 -- -- 63
2018-04-14 14:00:00 16 10 Nordeste 17 Este 0 -- -- 66
2018-04-14 13:00:00 14.8 3 Nordeste 13 Nordeste 0 -- -- 71
2018-04-14 12:00:00 13 6 Noroeste 12 Noroeste 0 -- -- 79
2018-04-14 11:00:00 11 4 Noroeste 8 Oeste 0 -- -- 93
2018-04-14 10:00:00 8.6 3 Este 8 Nordeste 0 -- -- 96
2018-04-14 09:00:00 6.4 3 Sudoeste 6 Nordeste 0 -- -- 97
2018-04-14 08:00:00 5.8 3 Este 6 Nordeste 0 -- -- 96
2018-04-14 07:00:00 6 0 Calma 5 Sur 0 -- -- 96
2018-04-14 06:00:00 6.1 3 Oeste 6 Sudoeste 0 -- -- 97
2018-04-14 05:00:00 6 2 Oeste 5 Noroeste 0 -- -- 96
2018-04-14 04:00:00 6.4 2 Oeste 5 Oeste 0 -- -- 96
2018-04-14 03:00:00 6.7 3 Oeste 5 Oeste 0 -- -- 96
2018-04-14 02:00:00 7 0 Calma 4 Nordeste 0 -- -- 95
2018-04-14 01:00:00 7.8 0 Calma 6 Oeste 0 -- -- 93
2018-04-14 00:00:00 9.1 3 Oeste 11 Nordeste 0 -- -- 92
2018-04-13 23:00:00 10.4 11 Nordeste 21 Este 0 -- -- 91
2018-04-13 22:00:00 10.2 14 Este 32 Este 0 -- -- 89
2018-04-13 21:00:00 10.1 18 Este 24 Este 0.8 -- -- 86
2018-04-13 20:00:00 10.6 10 Norte 29 Sudoeste 5.6 -- -- 80
2018-04-13 19:00:00 11.8 16 Sur 33 Sudeste 0.2 -- -- 77
2018-04-13 18:00:00 14.2 21 Este 31 Nordeste 0 -- -- 74
2018-04-13 17:00:00 15.8 13 Este 20 Este 0 -- -- 69
2018-04-13 16:00:00 14.8 6 Nordeste 15 Nordeste 0 -- -- 70
2018-04-13 15:00:00 14.1 11 Este 24 Este 0 -- -- 76
2018-04-13 14:00:00 13.5 16 Este 28 Nordeste 0 -- -- 87
2018-04-13 13:00:00 11.7 11 Este 14 Este 0 -- -- 95
2018-04-13 12:00:00 10.8 10 Este 15 Este 0.4 -- -- 97
2018-04-13 11:00:00 10.1 12 Nordeste 23 Este 2 -- -- 96
2018-04-13 10:00:00 9.9 15 Este 24 Este 0.6 -- -- 95
2018-04-13 09:00:00 9.6 16 Este 26 Este 1 -- -- 93
2018-04-13 08:00:00 9.5 14 Este 26 Este 0.4 -- -- 90
2018-04-13 07:00:00 10.1 21 Este 30 Este 0.4 -- -- 85
2018-04-13 06:00:00 10.5 15 Este 26 Este 0 -- -- 82
2018-04-13 05:00:00 10.8 14 Este 24 Este 0 -- -- 79
2018-04-13 04:00:00 9.7 12 Nordeste 17 Nordeste 0 -- -- 88
2018-04-13 03:00:00 9.9 9 Nordeste 12 Nordeste 0 -- -- 88
2018-04-13 02:00:00 9.3 0 Calma 7 Nordeste 0 -- -- 89
2018-04-13 01:00:00 9.9 2 Oeste 7 Nordeste 0 -- -- 87
2018-04-13 00:00:00 10.5 3 Nordeste 9 Este 0 -- -- 83
2018-04-12 23:00:00 10.3 4 Oeste 9 Noroeste 0 -- -- 83
2018-04-12 22:00:00 10.9 7 Noroeste 11 Oeste 0 -- -- 81
2018-04-12 21:00:00 12.8 6 Oeste 20 Sudoeste 0 -- -- 75
2018-04-12 20:00:00 15.6 10 Oeste 24 Sudoeste 0 -- -- 63
2018-04-12 19:00:00 14.8 6 Norte 13 Oeste 0 -- -- 76
2018-04-12 18:00:00 13.3 2 Nordeste 13 Nordeste 0 -- -- 84
2018-04-12 17:00:00 12.7 11 Norte 30 Sudoeste 2.2 -- -- 79
2018-04-12 16:00:00 15.4 22 Sudoeste 31 Sudoeste 0 -- -- 60
2018-04-12 15:00:00 15.8 14 Noroeste 30 Oeste 0 -- -- 59
2018-04-12 14:00:00 15.5 15 Noroeste 28 Oeste 0 -- -- 60
2018-04-12 13:00:00 13.5 8 Norte 20 Noroeste 0 -- -- 73
2018-04-12 12:00:00 11.8 12 Oeste 24 Oeste 0 -- -- 77
2018-04-12 11:00:00 10.1 17 Oeste 28 Oeste 0 -- -- 84
2018-04-12 10:00:00 8.3 9 Sudoeste 14 Sudoeste 0 -- -- 91
2018-04-12 09:00:00 6.4 8 Oeste 13 Oeste 0 -- -- 95
2018-04-12 08:00:00 4.7 9 Oeste 15 Sudoeste 0 -- -- 96
2018-04-12 07:00:00 2.7 4 Sudoeste 8 Oeste 0 -- -- 96
2018-04-12 06:00:00 2.9 4 Oeste 8 Sudoeste 0 -- -- 95
2018-04-12 05:00:00 3.6 3 Noroeste 9 Oeste 0 -- -- 94
2018-04-12 04:00:00 4.5 0 Calma 8 Norte 0 -- -- 93
2018-04-12 03:00:00 5.7 3 Este 29 Oeste 0 -- -- 89
2018-04-12 02:00:00 6.6 18 Noroeste 34 Oeste 0 -- -- 86
2018-04-12 01:00:00 7.1 17 Oeste 28 Noroeste 0 -- -- 89
2018-04-12 00:00:00 7.2 15 Oeste 21 Oeste 0 -- -- 90
2018-04-11 23:00:00 7.7 13 Oeste 21 Oeste 0 -- -- 90
2018-04-11 22:00:00 8 4 Sudoeste 10 Oeste 0 -- -- 94
2018-04-11 21:00:00 8.2 6 Oeste 13 Oeste 0 -- -- 92
2018-04-11 20:00:00 8.5 3 Oeste 6 Sur 0 -- -- 91
2018-04-11 19:00:00 8.5 0 Calma 7 Nordeste 0.6 -- -- 93
2018-04-11 18:00:00 8.1 3 Nordeste 9 Nordeste 3.2 -- -- 91
2018-04-11 17:00:00 8.4 5 Este 22 Nordeste 1.2 -- -- 89
2018-04-11 16:00:00 10.3 14 Noroeste 23 Oeste 0 -- -- 77
2018-04-11 15:00:00 10.2 11 Noroeste 18 Noroeste 0 -- -- 79
2018-04-11 14:00:00 9.2 5 Este 13 Sudoeste 0 -- -- 80
2018-04-11 13:00:00 8.5 5 Nordeste 14 Este 0 -- -- 80
2018-04-11 12:00:00 6.8 8 Nordeste 17 Nordeste 0 -- -- 85
2018-04-11 11:00:00 5.5 9 Sur 24 Sudeste 0 -- -- 90
2018-04-11 10:00:00 5.2 15 Sur 28 Sur 0.2 -- -- 92
2018-04-11 09:00:00 6.2 12 Sur 26 Sur 0 -- -- 93
2018-04-11 08:00:00 7.4 13 Sudeste 24 Este 0 -- -- 93
2018-04-11 07:00:00 8 9 Sudeste 25 Sudeste 0 -- -- 95
2018-04-11 06:00:00 8.5 19 Este 34 Este 0 -- -- 95
2018-04-11 05:00:00 8 17 Este 45 Este 4.4 -- -- 96
2018-04-11 04:00:00 8.2 27 Este 46 Este 5 -- -- 96
2018-04-11 03:00:00 8.4 4 Sur 28 Este 3.4 -- -- 95
2018-04-11 02:00:00 8.6 14 Este 32 Nordeste 1.6 -- -- 95
2018-04-11 01:00:00 8.6 10 Este 29 Este 3.8 -- -- 95
2018-04-11 00:00:00 8.6 11 Este 21 Este 1 -- -- 95
2018-04-10 23:00:00 8.8 12 Este 26 Este 0.2 -- -- 94
2018-04-10 22:00:00 8.9 15 Este 34 Este 0.2 -- -- 92
2018-04-10 21:00:00 9.4 18 Este 31 Este 0.2 -- -- 92
2018-04-10 20:00:00 9.7 17 Este 26 Sudeste 0.4 -- -- 94
2018-04-10 19:00:00 9.8 15 Este 31 Este 1 -- -- 91
2018-04-10 18:00:00 10.8 15 Este 21 Este 0.2 -- -- 86
2018-04-10 17:00:00 10.4 6 Sur 32 Este 1 -- -- 84
2018-04-10 16:00:00 12.6 22 Este 43 Este 0 -- -- 67
2018-04-10 15:00:00 13.7 14 Este 30 Este 0 -- -- 66
2018-04-10 14:00:00 13.3 21 Este 30 Este 0 -- -- 67
2018-04-10 13:00:00 12.2 18 Este 40 Este 0 -- -- 73
2018-04-10 12:00:00 10.1 18 Este 30 Nordeste 0 -- -- 86
2018-04-10 11:00:00 7.3 16 Este 26 Este 0 -- -- 95
2018-04-10 10:00:00 6.3 13 Este 20 Este 0 -- -- 97
2018-04-10 09:00:00 5.1 6 Nordeste 10 Este 0 -- -- 97
2018-04-10 08:00:00 4 5 Nordeste 7 Este 0 -- -- 96
2018-04-10 07:00:00 4.3 3 Sudeste 11 Norte 0 -- -- 95
2018-04-10 06:00:00 5.2 3 Oeste 9 Oeste 0 -- -- 95
2018-04-10 05:00:00 5.7 5 Oeste 13 Sudoeste 0 -- -- 94
2018-04-10 04:00:00 6.2 7 Sudoeste 18 Sudoeste 0 -- -- 95
2018-04-10 03:00:00 6.2 0 Calma 4 Sudoeste 0 -- -- 96
2018-04-10 02:00:00 6 2 Sudeste 8 Oeste 0 -- -- 95
2018-04-10 01:00:00 6.3 3 Sudoeste 8 Noroeste 0 -- -- 95
2018-04-10 00:00:00 6.3 3 Oeste 8 Sur 0 -- -- 95
2018-04-09 23:00:00 6.4 0 Calma 5 Noroeste 0 -- -- 94
2018-04-09 22:00:00 7.7 4 Este 19 Noroeste 1 -- -- 92
2018-04-09 21:00:00 8 3 Sudeste 6 Este 0 -- -- 90
2018-04-09 20:00:00 8.3 2 Norte 26 Este 0 -- -- 87
2018-04-09 19:00:00 8.4 17 Nordeste 29 Este 0 -- -- 90
2018-04-09 18:00:00 8.9 15 Este 27 Este 0.4 -- -- 86
2018-04-09 17:00:00 9.8 6 Norte 21 Oeste 1.4 -- -- 82
2018-04-09 16:00:00 9.7 13 Oeste 33 Oeste 1.8 -- -- 82
2018-04-09 15:00:00 13.1 22 Noroeste 35 Oeste 0 -- -- 63
2018-04-09 14:00:00 13.7 16 Noroeste 30 Noroeste 0 -- -- 60
2018-04-09 13:00:00 14 11 Oeste 23 Oeste 0 -- -- 67
2018-04-09 12:00:00 13.2 7 Nordeste 13 Este 0 -- -- 73
2018-04-09 11:00:00 10.4 9 Nordeste 16 Nordeste 0 -- -- 85
2018-04-09 10:00:00 8 4 Este 11 Este 0 -- -- 90
2018-04-09 09:00:00 6.2 3 Este 6 Nordeste 0 -- -- 95
2018-04-09 08:00:00 4.1 3 Oeste 6 Noroeste 0 -- -- 95
2018-04-09 07:00:00 4.2 0 Calma 9 Nordeste 0 -- -- 94
2018-04-09 06:00:00 5.2 2 Oeste 13 Sudoeste 0 -- -- 93
2018-04-09 05:00:00 6.1 8 Oeste 12 Sudoeste 0 -- -- 93
2018-04-09 04:00:00 6.6 6 Noroeste 12 Oeste 0 -- -- 91
2018-04-09 03:00:00 7.4 8 Oeste 15 Sudoeste 0 -- -- 89
2018-04-09 02:00:00 7.7 7 Oeste 14 Sudoeste 0 -- -- 87
2018-04-09 01:00:00 8.1 5 Oeste 13 Oeste 0 -- -- 85
2018-04-09 00:00:00 8.3 12 Oeste 16 Oeste 0 -- -- 84
2018-04-08 23:00:00 8.6 9 Oeste 13 Oeste 0 -- -- 84
2018-04-08 22:00:00 10 2 Sudoeste 9 Oeste 0 -- -- 81
2018-04-08 21:00:00 12.2 6 Oeste 21 Oeste 0 -- -- 72
2018-04-08 20:00:00 14.7 15 Oeste 29 Oeste 0 -- -- 60
2018-04-08 19:00:00 14.8 17 Oeste 32 Oeste 0 -- -- 60
2018-04-08 18:00:00 14.5 18 Noroeste 36 Oeste 0 -- -- 62
2018-04-08 17:00:00 14 24 Oeste 39 Oeste 0 -- -- 65
2018-04-08 16:00:00 13.4 18 Oeste 37 Oeste 0 -- -- 67
2018-04-08 15:00:00 12.6 19 Oeste 42 Oeste 0 -- -- 70
2018-04-08 14:00:00 12 20 Noroeste 37 Oeste 0 -- -- 71
2018-04-08 13:00:00 11.8 24 Oeste 40 Noroeste 0 -- -- 70
2018-04-08 12:00:00 11.8 20 Oeste 32 Oeste 0 -- -- 72
2018-04-08 11:00:00 10.5 9 Oeste 18 Sudoeste 0.2 -- -- 83
2018-04-08 10:00:00 10.1 14 Sudoeste 20 Sudoeste 0 -- -- 87
2018-04-08 09:00:00 9.4 11 Sudoeste 20 Sudoeste 0 -- -- 92
2018-04-08 08:00:00 9.1 16 Sudoeste 24 Sudoeste 0 -- -- 92
2018-04-08 07:00:00 9.2 9 Sudoeste 13 Oeste 0 -- -- 92
2018-04-08 06:00:00 9.5 9 Sudoeste 25 Sudoeste 0.2 -- -- 91
2018-04-08 05:00:00 9.7 17 Sudoeste 24 Sudoeste 0.4 -- -- 92
2018-04-08 04:00:00 10.3 18 Oeste 29 Oeste 1.4 -- -- 92
2018-04-08 03:00:00 10.5 17 Oeste 51 Oeste 6.2 -- -- 91
2018-04-08 02:00:00 11.9 9 Sudoeste 15 Sudoeste 4.8 -- -- 93
2018-04-08 01:00:00 12 5 Nordeste 19 Este 6.4 -- -- 92
2018-04-08 00:00:00 13.9 7 Este 13 Este 0.2 -- -- 82
2018-04-07 23:00:00 14.4 6 Nordeste 13 Este 0 -- -- 78
2018-04-07 22:00:00 14.5 5 Sudeste 20 Sur 0 -- -- 78
2018-04-07 21:00:00 14.9 8 Sudeste 17 Sudoeste 0 -- -- 76
2018-04-07 20:00:00 15.3 11 Sur 20 Sur 0.2 -- -- 76
2018-04-07 19:00:00 16 12 Sur 24 Sur 0 -- -- 72
2018-04-07 18:00:00 16.5 14 Sudeste 27 Sur 0 -- -- 72
2018-04-07 17:00:00 19.3 10 Este 18 Este 0 -- -- 56
2018-04-07 16:00:00 18.6 10 Este 22 Este 0 -- -- 57
2018-04-07 15:00:00 19 13 Este 26 Este 0 -- -- 54
2018-04-07 14:00:00 19.1 7 Este 24 Sudeste 0 -- -- 51
2018-04-07 13:00:00 19 9 Sudeste 26 Este 0 -- -- 48
2018-04-07 12:00:00 17.9 15 Este 35 Este 0 -- -- 50
2018-04-07 11:00:00 16.4 17 Este 30 Sudeste 0 -- -- 48
2018-04-07 10:00:00 14.2 14 Este 28 Este 0 -- -- 54
2018-04-07 09:00:00 13 12 Este 34 Este 0 -- -- 57
2018-04-07 08:00:00 12.6 17 Este 26 Sudeste 0 -- -- 58
2018-04-07 07:00:00 11.7 5 Este 18 Este 0 -- -- 66
2018-04-07 06:00:00 12.2 5 Este 18 Este 0 -- -- 68
2018-04-07 05:00:00 12.6 9 Este 21 Este 0 -- -- 67
2018-04-07 04:00:00 12.9 11 Este 22 Este 0 -- -- 65
2018-04-07 03:00:00 12.5 6 Este 13 Nordeste 0 -- -- 70
2018-04-07 02:00:00 12.9 10 Nordeste 27 Este 0 -- -- 69
2018-04-07 01:00:00 13.3 16 Este 33 Este 0 -- -- 66
2018-04-07 00:00:00 13.6 16 Este 30 Nordeste 0 -- -- 67
2018-04-06 23:00:00 13.7 14 Este 27 Este 0 -- -- 72
2018-04-06 22:00:00 14.5 14 Este 27 Este 0 -- -- 65
2018-04-06 21:00:00 15.1 13 Este 36 Sudeste 0 -- -- 57
2018-04-06 20:00:00 16.4 15 Este 37 Este 0 -- -- 50
2018-04-06 19:00:00 17.2 29 Este 51 Este 0 -- -- 44
2018-04-06 18:00:00 19.2 26 Este 43 Este 0 -- -- 36
2018-04-06 17:00:00 19.9 30 Este 50 Este 0 -- -- 36
2018-04-06 16:00:00 20.4 28 Sudeste 46 Sudeste 0 -- -- 36
2018-04-06 15:00:00 19.7 28 Este 45 Sudeste 0 -- -- 43
2018-04-06 14:00:00 19.6 26 Este 42 Sudeste 0 -- -- 43
2018-04-06 13:00:00 17.6 26 Este 39 Este 0 -- -- 52
2018-04-06 12:00:00 16.5 20 Este 32 Este 0 -- -- 56
2018-04-06 11:00:00 14.3 8 Este 16 Nordeste 0 -- -- 62
2018-04-06 10:00:00 10.5 7 Nordeste 12 Nordeste 0 -- -- 73
2018-04-06 09:00:00 6.8 2 Este 15 Nordeste 0 -- -- 85
2018-04-06 08:00:00 5.2 4 Nordeste 9 Nordeste 0 -- -- 88
2018-04-06 07:00:00 6 3 Norte 8 Nordeste 0 -- -- 86
2018-04-06 06:00:00 6.4 5 Nordeste 6 Nordeste 0 -- -- 81
2018-04-06 05:00:00 7.8 0 Calma 7 Nordeste 0 -- -- 79
2018-04-06 04:00:00 9.8 3 Este 17 Nordeste 0 -- -- 72
2018-04-06 03:00:00 10.6 8 Este 27 Este 0 -- -- 70
2018-04-06 02:00:00 11.2 17 Este 23 Este 0 -- -- 67
2018-04-06 01:00:00 12.1 14 Nordeste 19 Este 0 -- -- 63
2018-04-06 00:00:00 12.8 13 Nordeste 19 Sudeste 0 -- -- 62
2018-04-05 23:00:00 14.7 6 Este 18 Sudeste 0 -- -- 55
2018-04-05 22:00:00 15.9 11 Este 19 Sudeste 0 -- -- 52
2018-04-05 21:00:00 17.4 11 Este 20 Sudeste 0 -- -- 49
2018-04-05 20:00:00 18.7 7 Nordeste 21 Este 0 -- -- 46
2018-04-05 19:00:00 19.4 13 Nordeste 22 Este 0 -- -- 43
2018-04-05 18:00:00 20.2 17 Este 28 Este 0 -- -- 42
2018-04-05 17:00:00 20.4 8 Nordeste 21 Este 0 -- -- 40
2018-04-05 16:00:00 20.5 11 Este 23 Este 0 -- -- 41
2018-04-05 15:00:00 19.8 7 Norte 23 Oeste 0 -- -- 43
2018-04-05 14:00:00 18.6 9 Noroeste 21 Noroeste 0 -- -- 46
2018-04-05 13:00:00 17.2 12 Noroeste 22 Noroeste 0 -- -- 50
2018-04-05 12:00:00 16 10 Nordeste 18 Nordeste 0 -- -- 56
2018-04-05 11:00:00 13.8 9 Nordeste 15 Este 0 -- -- 64
2018-04-05 10:00:00 11.3 9 Nordeste 15 Nordeste 0 -- -- 73
2018-04-05 09:00:00 9.3 0 Calma 8 Noroeste 0 -- -- 80
2018-04-05 08:00:00 6.8 4 Nordeste 14 Sudoeste 0 -- -- 89
2018-04-05 07:00:00 6.6 5 Oeste 12 Sudoeste 0 -- -- 89
2018-04-05 06:00:00 6.3 4 Este 13 Nordeste 0 -- -- 88
2018-04-05 05:00:00 6.9 9 Oeste 17 Oeste 0 -- -- 85
2018-04-05 04:00:00 7 6 Oeste 11 Sudoeste 0 -- -- 86
2018-04-05 03:00:00 7.3 5 Oeste 13 Oeste 0 -- -- 87
2018-04-05 02:00:00 8.2 6 Oeste 12 Oeste 0 -- -- 85
2018-04-05 01:00:00 8.9 3 Sur 8 Sudoeste 0 -- -- 82
2018-04-05 00:00:00 9.6 3 Sur 10 Oeste 0 -- -- 79
2018-04-04 23:00:00 10.6 5 Oeste 10 Oeste 0 -- -- 77
2018-04-04 22:00:00 11.5 4 Oeste 13 Oeste 0 -- -- 73
2018-04-04 21:00:00 12.8 9 Sudoeste 18 Oeste 0 -- -- 70
2018-04-04 20:00:00 15.2 15 Noroeste 51 Noroeste 0 -- -- 61
2018-04-04 19:00:00 18.6 30 Oeste 48 Oeste 0 -- -- 39
2018-04-04 18:00:00 20 24 Oeste 45 Oeste 0 -- -- 37
2018-04-04 17:00:00 19.7 22 Oeste 47 Sudoeste 0 -- -- 36
2018-04-04 16:00:00 18.6 22 Oeste 38 Oeste 0 -- -- 37
2018-04-04 15:00:00 18.9 19 Oeste 39 Sudoeste 0 -- -- 37
2018-04-04 14:00:00 18.3 26 Oeste 48 Sudoeste 0 -- -- 38
2018-04-04 13:00:00 18.2 26 Oeste 39 Sudoeste 0 -- -- 38
2018-04-04 12:00:00 17 26 Oeste 42 Oeste 0 -- -- 43
2018-04-04 11:00:00 16.2 23 Sudoeste 41 Oeste 0 -- -- 47
2018-04-04 10:00:00 14.6 17 Oeste 28 Oeste 0 -- -- 53
2018-04-04 09:00:00 12.3 13 Oeste 35 Oeste 0 -- -- 63
2018-04-04 08:00:00 10.4 15 Oeste 20 Sudoeste 0 -- -- 70
2018-04-04 07:00:00 9.6 12 Oeste 15 Oeste 0 -- -- 77
2018-04-04 06:00:00 10.1 3 Oeste 10 Nordeste 0 -- -- 81
2018-04-04 05:00:00 11.5 3 Oeste 13 Oeste 0 -- -- 78
2018-04-04 04:00:00 10.9 5 Sudoeste 17 Sudoeste 0.2 -- -- 83
2018-04-04 03:00:00 10.5 4 Oeste 10 Oeste 0 -- -- 81
2018-04-04 02:00:00 11.3 5 Noroeste 15 Sudoeste 0 -- -- 78
2018-04-04 01:00:00 12.9 11 Oeste 16 Sudoeste 0 -- -- 76
2018-04-04 00:00:00 13.9 10 Sudoeste 21 Sudoeste 0 -- -- 74
2018-04-03 23:00:00 14.8 9 Oeste 17 Sur 0 -- -- 70
2018-04-03 22:00:00 15.8 5 Sudoeste 8 Sudoeste 0 -- -- 62
2018-04-03 21:00:00 17.5 5 Sur 14 Este 0 -- -- 52
2018-04-03 20:00:00 20.5 8 Sudeste 15 Sudeste 0 -- -- 43
2018-04-03 19:00:00 20.9 10 Este 19 Nordeste 0 -- -- 45
2018-04-03 18:00:00 21.7 10 Nordeste 21 Nordeste 0 -- -- 44
2018-04-03 17:00:00 20.9 13 Nordeste 26 Nordeste 0 -- -- 44
2018-04-03 16:00:00 21.8 11 Este 29 Este 0 -- -- 44
2018-04-03 15:00:00 21 10 Este 27 Nordeste 0 -- -- 46
2018-04-03 14:00:00 19.4 10 Nordeste 18 Este 0 -- -- 51
2018-04-03 13:00:00 17.3 10 Este 17 Nordeste 0 -- -- 59
2018-04-03 12:00:00 15 5 Nordeste 17 Nordeste 0 -- -- 68
2018-04-03 11:00:00 11.8 3 Nordeste 9 Nordeste 0 -- -- 70
2018-04-03 10:00:00 9.7 3 Este 7 Nordeste 0 -- -- 77
2018-04-03 09:00:00 7.8 2 Sur 6 Nordeste 0 -- -- 84
2018-04-03 08:00:00 7.1 0 Calma 4 Este 0 -- -- 84
2018-04-03 07:00:00 7.1 0 Calma 4 Noroeste 0 -- -- 84
2018-04-03 06:00:00 8.3 0 Calma 4 Este 0 -- -- 79
2018-04-03 05:00:00 10.1 2 Noroeste 12 Sudeste 0 -- -- 74
2018-04-03 04:00:00 10.5 2 Nordeste 5 Sudoeste 0 -- -- 73
2018-04-03 03:00:00 10.7 2 Nordeste 7 Norte 0 -- -- 70
2018-04-03 02:00:00 11.2 2 Norte 12 Nordeste 0 -- -- 69
2018-04-03 01:00:00 11.8 7 Nordeste 14 Nordeste 0 -- -- 64
2018-04-03 00:00:00 12.5 10 Nordeste 32 Este 0 -- -- 54
2018-04-02 23:00:00 13.7 17 Este 43 Este 0 -- -- 47
2018-04-02 22:00:00 14.7 24 Este 40 Este 0 -- -- 42
2018-04-02 21:00:00 15.1 13 Este 24 Este 0 -- -- 38
2018-04-02 20:00:00 16.2 12 Este 29 Sudeste 0 -- -- 36
2018-04-02 19:00:00 16.9 16 Este 35 Este 0 -- -- 37
2018-04-02 18:00:00 17.4 23 Este 37 Este 0 -- -- 37
2018-04-02 17:00:00 18 22 Este 38 Este 0 -- -- 35
2018-04-02 16:00:00 18 24 Este 39 Este 0 -- -- 33
2018-04-02 15:00:00 17.6 23 Este 38 Este 0 -- -- 33
2018-04-02 14:00:00 17 23 Este 38 Este 0 -- -- 35
2018-04-02 13:00:00 16.4 23 Este 37 Este 0 -- -- 37
2018-04-02 12:00:00 14.4 11 Este 17 Este 0 -- -- 50
2018-04-02 11:00:00 11.9 8 Nordeste 12 Este 0 -- -- 58
2018-04-02 10:00:00 9.3 4 Nordeste 12 Nordeste 0 -- -- 66
2018-04-02 09:00:00 7.7 8 Nordeste 16 Este 0 -- -- 69
2018-04-02 08:00:00 7.5 8 Nordeste 18 Este 0 -- -- 69
2018-04-02 07:00:00 7.6 6 Nordeste 21 Este 0 -- -- 70
2018-04-02 06:00:00 8.5 9 Este 15 Nordeste 0 -- -- 66
2018-04-02 05:00:00 7.6 7 Este 13 Este 0 -- -- 71
2018-04-02 04:00:00 8.3 3 Nordeste 9 Nordeste 0 -- -- 69
2018-04-02 03:00:00 10.2 8 Nordeste 16 Este 0 -- -- 60
2018-04-02 02:00:00 9.7 12 Este 21 Nordeste 0 -- -- 67
2018-04-02 01:00:00 10.9 14 Este 18 Nordeste 0 -- -- 62
2018-04-02 00:00:00 12.3 6 Nordeste 14 Nordeste 0 -- -- 52
2018-04-01 23:00:00 13.2 12 Este 31 Este 0 -- -- 47
2018-04-01 22:00:00 14.7 18 Este 30 Sudeste 0 -- -- 44
2018-04-01 21:00:00 15.3 13 Este 21 Este 0 -- -- 44
2018-04-01 20:00:00 15.9 7 Nordeste 21 Nordeste 0 -- -- 46
2018-04-01 19:00:00 17.1 12 Nordeste 22 Nordeste 0 -- -- 43
2018-04-01 18:00:00 17.8 15 Nordeste 24 Nordeste 0 -- -- 40
2018-04-01 17:00:00 18.4 12 Este 18 Sudeste 0 -- -- 38
2018-04-01 16:00:00 18.3 8 Sudeste 18 Sudeste 0 -- -- 35
2018-04-01 15:00:00 17.4 6 Este 17 Sudeste 0 -- -- 37
2018-04-01 14:00:00 16.5 10 Este 19 Este 0 -- -- 40
2018-04-01 13:00:00 14.3 5 Nordeste 18 Este 0 -- -- 47
2018-04-01 12:00:00 11.8 11 Este 17 Este 0 -- -- 54
2018-04-01 11:00:00 9.8 7 Este 13 Este 0 -- -- 59
2018-04-01 10:00:00 7.4 8 Nordeste 11 Nordeste 0 -- -- 68
2018-04-01 09:00:00 4.7 3 Noroeste 6 Sudoeste 0 -- -- 76
2018-04-01 08:00:00 2.4 3 Oeste 13 Oeste 0 -- -- 80
2018-04-01 07:00:00 2.4 4 Noroeste 9 Oeste 0 -- -- 80
2018-04-01 06:00:00 2.7 4 Sudoeste 8 Oeste 0 -- -- 78
2018-04-01 05:00:00 3.6 3 Noroeste 7 Oeste 0 -- -- 73
2018-04-01 04:00:00 5.5 5 Noroeste 18 Oeste 0 -- -- 64
2018-04-01 03:00:00 5.4 8 Sudoeste 10 Sudoeste 0 -- -- 67
2018-04-01 02:00:00 7.9 3 Sur 34 Oeste 0 -- -- 59
2018-04-01 01:00:00 9 24 Oeste 41 Oeste 0 -- -- 55
2018-04-01 00:00:00 9 24 Oeste 39 Oeste 0 -- -- 55
2018-03-31 23:00:00 8.8 15 Oeste 32 Oeste 0 -- -- 57
2018-03-31 22:00:00 9.5 18 Oeste 35 Oeste 0 -- -- 55
2018-03-31 21:00:00 9.7 20 Oeste 36 Noroeste 0 -- -- 60
2018-03-31 20:00:00 10.9 23 Oeste 55 Noroeste 0 -- -- 53
2018-03-31 19:00:00 13.9 21 Noroeste 46 Oeste 0 -- -- 40
2018-03-31 18:00:00 14.4 26 Oeste 58 Oeste 0 -- -- 40
2018-03-31 17:00:00 14.6 32 Noroeste 64 Noroeste 0 -- -- 40
2018-03-31 16:00:00 14.4 42 Oeste 68 Noroeste 0 -- -- 36
2018-03-31 15:00:00 14.1 32 Noroeste 67 Oeste 0 -- -- 40
2018-03-31 14:00:00 13.4 42 Noroeste 70 Noroeste 0 -- -- 39
2018-03-31 13:00:00 12.3 44 Oeste 72 Oeste 0 -- -- 46
2018-03-31 12:00:00 11.9 44 Oeste 73 Oeste 0 -- -- 46
2018-03-31 11:00:00 10.9 37 Noroeste 69 Oeste 0 -- -- 48
2018-03-31 10:00:00 9.8 25 Oeste 40 Noroeste 0 -- -- 55
2018-03-31 09:00:00 7.5 15 Oeste 26 Sudoeste 0 -- -- 66
2018-03-31 08:00:00 6 10 Oeste 18 Oeste 0 -- -- 74
2018-03-31 07:00:00 5.4 5 Sudoeste 8 Sudoeste 0 -- -- 77
2018-03-31 06:00:00 5.9 5 Oeste 22 Noroeste 0 -- -- 73
2018-03-31 05:00:00 8.3 16 Oeste 54 Sudoeste 0 -- -- 57
2018-03-31 04:00:00 9.2 36 Oeste 54 Oeste 0 -- -- 57
2018-03-31 03:00:00 11.2 26 Oeste 51 Sudoeste 0 -- -- 50
2018-03-31 02:00:00 12.1 35 Oeste 50 Oeste 0 -- -- 40
2018-03-31 01:00:00 11.9 27 Sudoeste 39 Sudoeste 0 -- -- 38
2018-03-31 00:00:00 11.9 21 Sudoeste 35 Sudoeste 0 -- -- 38
2018-03-30 23:00:00 12.9 13 Sudoeste 46 Sudoeste 0 -- -- 36
2018-03-30 22:00:00 9.3 3 Oeste 7 Noroeste 0 -- -- 51
2018-03-30 21:00:00 10.7 0 Calma 10 Noroeste 0 -- -- 42
2018-03-30 20:00:00 14.5 8 Noroeste 24 Noroeste 0 -- -- 31
2018-03-30 19:00:00 15.5 19 Oeste 33 Oeste 0 -- -- 26
2018-03-30 18:00:00 15.6 24 Oeste 42 Oeste 0 -- -- 27
2018-03-30 17:00:00 15.9 25 Oeste 44 Sudoeste 0 -- -- 27
2018-03-30 16:00:00 15.7 23 Oeste 46 Sudoeste 0 -- -- 27
2018-03-30 15:00:00 14.9 21 Oeste 40 Oeste 0 -- -- 29
2018-03-30 14:00:00 14.2 23 Oeste 40 Sudoeste 0 -- -- 32
2018-03-30 13:00:00 13.8 19 Oeste 38 Sudoeste 0 -- -- 38
2018-03-30 12:00:00 12.6 33 Oeste 45 Sudoeste 0 -- -- 43
2018-03-30 11:00:00 11 26 Sudoeste 36 Oeste 0 -- -- 50
2018-03-30 10:00:00 11.7 9 Oeste 36 Oeste 0 -- -- 57
2018-03-30 09:00:00 11.7 18 Oeste 36 Oeste 0 -- -- 51
2018-03-30 08:00:00 10.4 12 Oeste 18 Oeste 0 -- -- 53
2018-03-30 07:00:00 10.8 7 Oeste 29 Oeste 0 -- -- 54
2018-03-30 06:00:00 11 21 Oeste 33 Oeste 0 -- -- 52
2018-03-30 05:00:00 8.9 10 Oeste 13 Oeste 0 -- -- 82
2018-03-30 04:00:00 10.1 6 Oeste 12 Oeste 0 -- -- 82
2018-03-30 03:00:00 10.7 2 Oeste 5 Noroeste 0 -- -- 82
2018-03-30 02:00:00 10.5 5 Noroeste 7 Noroeste 0 -- -- 83
2018-03-30 01:00:00 10.7 3 Noroeste 9 Este 0 -- -- 80
2018-03-30 00:00:00 12.2 6 Este 22 Este 0 -- -- 73
2018-03-29 23:00:00 13.5 13 Este 26 Este 0 -- -- 68
2018-03-29 22:00:00 14.4 9 Este 22 Este 0 -- -- 64
2018-03-29 21:00:00 15.7 14 Este 27 Este 0 -- -- 60
2018-03-29 20:00:00 17.1 11 Este 17 Este 0 -- -- 42
2018-03-29 19:00:00 18.1 4 Nordeste 12 Norte 0 -- -- 38
2018-03-29 18:00:00 18.7 8 Noroeste 21 Oeste 0 -- -- 38
2018-03-29 17:00:00 18.9 13 Noroeste 28 Noroeste 0 -- -- 38
2018-03-29 16:00:00 18.9 18 Oeste 38 Oeste 0 -- -- 37
2018-03-29 15:00:00 18.4 20 Oeste 32 Sudoeste 0 -- -- 39
2018-03-29 14:00:00 17.1 9 Noroeste 28 Sudoeste 0 -- -- 46
2018-03-29 13:00:00 16.6 12 Oeste 24 Noroeste 0 -- -- 48
2018-03-29 12:00:00 16 4 Nordeste 15 Oeste 0 -- -- 50
2018-03-29 11:00:00 14.2 5 Nordeste 14 Nordeste 0 -- -- 60
2018-03-29 10:00:00 12.6 7 Nordeste 13 Oeste 0 -- -- 67
2018-03-29 09:00:00 10.5 4 Sur 8 Sudoeste 0 -- -- 73
2018-03-29 08:00:00 9.1 8 Norte 13 Norte 0 -- -- 78
2018-03-29 07:00:00 10.1 10 Sudoeste 26 Sudoeste 0 -- -- 74
2018-03-29 06:00:00 11.5 18 Oeste 31 Oeste 0 -- -- 70
2018-03-29 05:00:00 12.8 17 Sudoeste 31 Oeste 0 -- -- 64
2018-03-29 04:00:00 13.6 20 Oeste 37 Oeste 0 -- -- 62
2018-03-29 03:00:00 14.3 19 Oeste 36 Oeste 0 -- -- 59
2018-03-29 02:00:00 10.1 5 Oeste 9 Noroeste 0 -- -- 72
2018-03-29 01:00:00 11.2 6 Oeste 13 Oeste 0 -- -- 67
2018-03-29 00:00:00 11.7 5 Oeste 12 Oeste 0 -- -- 65
2018-03-28 23:00:00 12.8 8 Oeste 13 Oeste 0 -- -- 61
2018-03-28 22:00:00 14 5 Sudoeste 11 Oeste 0 -- -- 58
2018-03-28 21:00:00 15.9 0 Calma 8 Noroeste 0 -- -- 51
2018-03-28 20:00:00 19.6 2 Noroeste 10 Noroeste 0 -- -- 42
2018-03-28 19:00:00 22.4 4 Noroeste 15 Noroeste 0 -- -- 32
2018-03-28 18:00:00 24 6 Noroeste 23 Oeste 0 -- -- 28
2018-03-28 17:00:00 23.8 15 Oeste 34 Oeste 0 -- -- 28
2018-03-28 16:00:00 23.7 14 Oeste 45 Oeste 0 -- -- 29
2018-03-28 15:00:00 22.9 16 Oeste 31 Oeste 0 -- -- 29
2018-03-28 14:00:00 21.7 18 Sudoeste 31 Sudoeste 0 -- -- 35
2018-03-28 13:00:00 20.8 7 Oeste 20 Noroeste 0 -- -- 40
2018-03-28 12:00:00 17.7 6 Este 11 Nordeste 0 -- -- 56
2018-03-28 11:00:00 14.8 7 Este 15 Nordeste 0 -- -- 63
2018-03-28 10:00:00 12.8 6 Nordeste 10 Este 0 -- -- 68
2018-03-28 09:00:00 9.8 3 Noroeste 8 Oeste 0 -- -- 78
2018-03-28 08:00:00 6.9 5 Noroeste 8 Noroeste 0 -- -- 84
2018-03-28 07:00:00 8.3 2 Sudoeste 12 Sudeste 0 -- -- 79
2018-03-28 06:00:00 11.3 3 Oeste 22 Sudoeste 0 -- -- 68
2018-03-28 05:00:00 12.9 8 Oeste 36 Sudoeste 0 -- -- 63
2018-03-28 04:00:00 13.3 27 Sudoeste 36 Sudoeste 0 -- -- 65
2018-03-28 03:00:00 15.2 20 Sudoeste 32 Sudoeste 0 -- -- 58
2018-03-28 02:00:00 15.3 24 Oeste 41 Oeste 0 -- -- 59
2018-03-28 01:00:00 15.3 16 Oeste 52 Oeste 0 -- -- 59
2018-03-28 00:00:00 15.7 31 Oeste 53 Oeste 0 -- -- 58
2018-03-27 23:00:00 15.8 36 Oeste 67 Oeste 0 -- -- 59
2018-03-27 22:00:00 16 45 Oeste 68 Oeste 0 -- -- 59
2018-03-27 21:00:00 16.7 34 Oeste 63 Oeste 0 -- -- 56
2018-03-27 20:00:00 17.3 37 Oeste 68 Oeste 0 -- -- 53
2018-03-27 19:00:00 18.1 41 Oeste 68 Oeste 0 -- -- 51
2018-03-27 18:00:00 18.9 44 Oeste 72 Oeste 0 -- -- 49
2018-03-27 17:00:00 19.5 46 Oeste 71 Noroeste 0 -- -- 49
2018-03-27 16:00:00 19.7 46 Oeste 67 Oeste 0 -- -- 49
2018-03-27 15:00:00 19.5 40 Oeste 60 Oeste 0 -- -- 49
2018-03-27 14:00:00 18.5 37 Oeste 57 Oeste 0 -- -- 52
2018-03-27 13:00:00 17.6 32 Oeste 52 Oeste 0 -- -- 53
2018-03-27 12:00:00 16.3 27 Noroeste 45 Noroeste 0 -- -- 57
2018-03-27 11:00:00 12.6 6 Nordeste 14 Este 0 -- -- 68
2018-03-27 10:00:00 10.2 8 Nordeste 17 Oeste 0 -- -- 72
2018-03-27 09:00:00 8.7 3 Este 11 Sudoeste 0 -- -- 74
2018-03-27 08:00:00 6.2 8 Sudoeste 14 Sudoeste 0 -- -- 82
2018-03-27 07:00:00 6.8 6 Sudoeste 21 Oeste 0 -- -- 75
2018-03-27 06:00:00 7.6 13 Oeste 21 Oeste 0 -- -- 72
2018-03-27 05:00:00 7.7 10 Oeste 31 Noroeste 0 -- -- 70
2018-03-27 04:00:00 7.9 19 Oeste 35 Oeste 0 -- -- 69
2018-03-27 03:00:00 8.2 22 Oeste 37 Oeste 0 -- -- 67
2018-03-27 02:00:00 8.7 26 Oeste 40 Oeste 0 -- -- 64
2018-03-27 01:00:00 9.1 27 Oeste 46 Noroeste 0 -- -- 63
2018-03-27 00:00:00 9.6 30 Oeste 56 Oeste 0 -- -- 61
2018-03-26 23:00:00 9.8 35 Oeste 59 Noroeste 0 -- -- 59
2018-03-26 22:00:00 10.6 31 Oeste 59 Oeste 0 -- -- 55
2018-03-26 21:00:00 11.7 35 Oeste 63 Oeste 0 -- -- 46
2018-03-26 20:00:00 12.8 37 Noroeste 68 Oeste 0 -- -- 39
2018-03-26 19:00:00 13.8 39 Oeste 66 Noroeste 0 -- -- 35
2018-03-26 18:00:00 15.8 37 Noroeste 62 Oeste 0 -- -- 39
2018-03-26 17:00:00 16 37 Noroeste 60 Noroeste 0 -- -- 41
2018-03-26 16:00:00 16.2 39 Oeste 60 Oeste 0 -- -- 44
2018-03-26 15:00:00 16 36 Oeste 61 Oeste 0 -- -- 46
2018-03-26 14:00:00 15.3 41 Oeste 63 Oeste 0 -- -- 51
2018-03-26 13:00:00 14.5 32 Oeste 52 Noroeste 0 -- -- 59
2018-03-26 12:00:00 13.6 20 Oeste 37 Oeste 0 -- -- 60
2018-03-26 11:00:00 12 18 Oeste 33 Oeste 0 -- -- 66
2018-03-26 10:00:00 9.7 11 Oeste 23 Noroeste 0 -- -- 74
2018-03-26 09:00:00 5.9 4 Sudoeste 8 Noroeste 0 -- -- 89
2018-03-26 08:00:00 3.5 4 Oeste 8 Noroeste 0 -- -- 90
2018-03-26 07:00:00 4.5 2 Oeste 16 Noroeste 0 -- -- 85
2018-03-26 06:00:00 6.7 12 Noroeste 32 Oeste 0 -- -- 81
2018-03-26 05:00:00 7.2 19 Oeste 32 Noroeste 0 -- -- 79
2018-03-26 04:00:00 7.6 19 Oeste 33 Oeste 0 -- -- 75
2018-03-26 03:00:00 8.2 18 Oeste 34 Oeste 0 -- -- 72
2018-03-26 02:00:00 8 16 Noroeste 27 Noroeste 0 -- -- 72
2018-03-26 01:00:00 8.3 16 Noroeste 36 Oeste 0 -- -- 70
2018-03-26 00:00:00 8.9 23 Oeste 38 Oeste 0 -- -- 67
2018-03-25 23:00:00 9.2 17 Oeste 30 Oeste 0 -- -- 65
2018-03-25 22:00:00 9.8 15 Oeste 24 Oeste 0 -- -- 63
2018-03-25 21:00:00 9.1 9 Oeste 12 Oeste 0 -- -- 77
2018-03-25 20:00:00 11.5 2 Nordeste 18 Nordeste 0 -- -- 67
2018-03-25 19:00:00 12.6 6 Nordeste 10 Nordeste 0 -- -- 61
2018-03-25 18:00:00 12.4 10 Nordeste 32 Noroeste 0 -- -- 62
2018-03-25 17:00:00 14.6 13 Oeste 32 Noroeste 0 -- -- 47
2018-03-25 16:00:00 13.7 6 Nordeste 27 Oeste 0 -- -- 52
2018-03-25 15:00:00 13.4 7 Sudoeste 17 Oeste 0 -- -- 52
2018-03-25 14:00:00 12.7 8 Nordeste 21 Nordeste 0 -- -- 55
2018-03-25 13:00:00 11.7 6 Noroeste 18 Noroeste 0 -- -- 59
2018-03-25 12:00:00 11.1 8 Nordeste 19 Noroeste 0 -- -- 63
2018-03-25 11:00:00 9.1 12 Noroeste 22 Noroeste 0 -- -- 69
2018-03-25 10:00:00 7 14 Oeste 22 Oeste 0 -- -- 73
2018-03-25 09:00:00 4.1 3 Sudoeste 7 Oeste 0 -- -- 89
2018-03-25 08:00:00 3 6 Noroeste 8 Oeste 0 -- -- 86
2018-03-25 07:00:00 4.7 4 Oeste 16 Oeste 0 -- -- 79
2018-03-25 06:00:00 6 6 Oeste 24 Oeste 0 -- -- 77
2018-03-25 05:00:00 7.3 11 Oeste 28 Noroeste 0 -- -- 71
2018-03-25 03:00:00 7.9 8 Oeste 17 Noroeste 0 -- -- 71
2018-03-25 01:00:00 8.1 8 Noroeste 18 Noroeste 0 -- -- 69
2018-03-25 00:00:00 8.6 9 Norte 29 Oeste 0 -- -- 67
2018-03-24 23:00:00 9.4 18 Noroeste 37 Oeste 0 -- -- 64
2018-03-24 22:00:00 9.4 19 Oeste 36 Oeste 0 -- -- 66
2018-03-24 21:00:00 9.9 25 Oeste 37 Oeste 0 -- -- 64
2018-03-24 20:00:00 10.9 17 Oeste 30 Noroeste 0 -- -- 59
2018-03-24 19:00:00 12.3 12 Oeste 35 Oeste 0 -- -- 55
2018-03-24 18:00:00 12.6 18 Noroeste 39 Noroeste 0 -- -- 52
2018-03-24 17:00:00 12.4 20 Oeste 48 Oeste 0 -- -- 53
2018-03-24 16:00:00 12.3 21 Noroeste 45 Oeste 0 -- -- 51
2018-03-24 15:00:00 11.8 21 Noroeste 45 Oeste 0 -- -- 53
2018-03-24 14:00:00 11 21 Oeste 38 Oeste 0 -- -- 58
2018-03-24 13:00:00 10.1 19 Oeste 34 Oeste 0 -- -- 62
2018-03-24 12:00:00 9.1 18 Noroeste 33 Noroeste 0 -- -- 63
2018-03-24 11:00:00 8.6 19 Noroeste 41 Oeste 0 -- -- 65
2018-03-24 10:00:00 8.3 29 Oeste 51 Oeste 0 -- -- 64
2018-03-24 09:00:00 7.7 30 Oeste 54 Oeste 0 -- -- 66
2018-03-24 08:00:00 7.4 36 Oeste 56 Oeste 0.2 -- -- 69
2018-03-24 07:00:00 7.2 20 Oeste 42 Sudoeste 0 -- -- 78
2018-03-24 06:00:00 7.4 17 Oeste 42 Oeste 1.6 -- -- 85
2018-03-24 05:00:00 10 12 Sudoeste 18 Sudoeste 3 -- -- 93
2018-03-24 04:00:00 10.3 4 Sur 12 Sur 1.2 -- -- 92
2018-03-24 03:00:00 10.5 5 Noroeste 13 Sudoeste 1.8 -- -- 90
2018-03-24 02:00:00 10.7 9 Oeste 17 Sudoeste 1.4 -- -- 86
2018-03-24 01:00:00 11.9 13 Oeste 18 Sudoeste 0 -- -- 70
2018-03-24 00:00:00 12.5 11 Oeste 17 Sudoeste 0 -- -- 66
2018-03-23 23:00:00 12.5 11 Sudoeste 17 Sudoeste 0 -- -- 65
2018-03-23 22:00:00 12.1 6 Sudoeste 12 Sudoeste 0 -- -- 65
2018-03-23 21:00:00 13.8 6 Oeste 17 Oeste 0 -- -- 58
2018-03-23 20:00:00 15 9 Oeste 24 Sudoeste 0 -- -- 53
2018-03-23 19:00:00 16.2 21 Oeste 36 Sudoeste 0 -- -- 48
2018-03-23 18:00:00 17.3 19 Oeste 38 Oeste 0 -- -- 45
2018-03-23 17:00:00 18.6 26 Oeste 50 Oeste 0 -- -- 43
2018-03-23 16:00:00 19.1 33 Oeste 56 Oeste 0 -- -- 41
2018-03-23 15:00:00 18.5 29 Oeste 54 Oeste 0 -- -- 44
2018-03-23 14:00:00 17.4 29 Oeste 48 Oeste 0 -- -- 45
2018-03-23 13:00:00 17 29 Oeste 49 Oeste 0 -- -- 44
2018-03-23 12:00:00 14.8 18 Oeste 50 Oeste 0 -- -- 41
2018-03-23 11:00:00 13.3 25 Oeste 39 Noroeste 0 -- -- 37
2018-03-23 10:00:00 7 8 Nordeste 14 Nordeste 0 -- -- 47
2018-03-23 09:00:00 5.4 3 Sudeste 10 Oeste 0 -- -- 58
2018-03-23 08:00:00 1.9 8 Oeste 10 Oeste 0 -- -- 64
2018-03-23 07:00:00 0.2 5 Noroeste 11 Oeste 0 -- -- 69
2018-03-23 06:00:00 0.9 8 Noroeste 13 Oeste 0 -- -- 66
2018-03-23 05:00:00 0.8 3 Oeste 11 Noroeste 0 -- -- 61
2018-03-23 04:00:00 1.6 3 Oeste 13 Sudoeste 0 -- -- 56
2018-03-23 03:00:00 2.1 6 Oeste 12 Sudoeste 0 -- -- 54
2018-03-23 02:00:00 4 6 Sudoeste 14 Oeste 0 -- -- 49
2018-03-23 01:00:00 5.4 8 Oeste 25 Oeste 0 -- -- 44
2018-03-23 00:00:00 5.9 7 Oeste 17 Oeste 0 -- -- 46